createdAt,value
2018-05-23T00:01:38.460Z,18.07
2018-05-23T00:04:05.320Z,17.99
2018-05-23T00:06:32.357Z,18.02
2018-05-23T00:08:59.128Z,17.95
2018-05-23T00:11:26.016Z,17.99
2018-05-23T00:13:52.794Z,17.91
2018-05-23T00:16:19.561Z,18.01
2018-05-23T00:18:47.331Z,17.95
2018-05-23T00:21:14.894Z,17.92
2018-05-23T00:23:41.721Z,17.86
2018-05-23T00:26:09.365Z,17.80
2018-05-23T00:28:36.148Z,17.81
2018-05-23T00:31:03.643Z,17.80
2018-05-23T00:33:30.459Z,17.61
2018-05-23T00:35:57.569Z,17.70
2018-05-23T00:38:24.357Z,17.69
2018-05-23T00:40:51.132Z,17.53
2018-05-23T00:43:24.588Z,17.60
2018-05-23T00:45:51.361Z,17.59
2018-05-23T00:48:18.932Z,17.64
2018-05-23T00:50:46.089Z,17.48
2018-05-23T00:53:12.860Z,17.52
2018-05-23T00:55:40.396Z,17.51
2018-05-23T00:58:07.582Z,17.55
2018-05-23T01:00:34.402Z,17.46
2018-05-23T01:03:01.190Z,17.45
2018-05-23T01:05:28.017Z,17.41
2018-05-23T01:07:55.541Z,17.37
2018-05-23T01:10:22.345Z,17.42
2018-05-23T01:12:49.219Z,17.36
2018-05-23T01:15:16.091Z,17.30
2018-05-23T01:17:43.617Z,17.30
2018-05-23T01:20:10.416Z,17.20
2018-05-23T01:22:37.277Z,17.26
2018-05-23T01:25:04.162Z,17.16
2018-05-23T01:27:30.976Z,17.20
2018-05-23T01:29:57.793Z,17.22
2018-05-23T01:32:24.600Z,17.19
2018-05-23T01:34:51.567Z,17.16
2018-05-23T01:37:18.391Z,17.16
2018-05-23T01:39:45.167Z,17.12
2018-05-23T01:42:12.738Z,17.04
2018-05-23T01:44:39.516Z,17.08
2018-05-23T01:47:07.033Z,16.89
2018-05-23T01:49:33.905Z,16.97
2018-05-23T01:52:00.995Z,16.90
2018-05-23T01:54:27.771Z,16.95
2018-05-23T01:56:54.632Z,16.97
2018-05-23T01:59:21.609Z,16.87
2018-05-23T02:01:48.467Z,16.88
2018-05-23T02:04:15.253Z,16.89
2018-05-23T02:06:42.344Z,16.95
2018-05-23T02:09:09.140Z,16.81
2018-05-23T02:11:35.940Z,16.83
2018-05-23T02:14:02.957Z,16.75
2018-05-23T02:16:29.749Z,16.74
2018-05-23T02:18:56.568Z,16.74
2018-05-23T02:21:23.401Z,16.74
2018-05-23T02:23:50.185Z,16.71
2018-05-23T02:26:17.089Z,16.66
2018-05-23T02:28:43.916Z,16.50
2018-05-23T02:31:10.743Z,16.49
2018-05-23T02:33:37.525Z,16.50
2018-05-23T02:36:04.304Z,16.43
2018-05-23T02:38:31.215Z,16.36
2018-05-23T02:40:58.006Z,16.44
2018-05-23T02:43:25.204Z,16.33
2018-05-23T02:45:51.988Z,16.37
2018-05-23T02:48:19.519Z,16.38
2018-05-23T02:50:46.413Z,16.44
2018-05-23T02:53:13.205Z,16.31
2018-05-23T02:55:40.045Z,16.53
2018-05-23T02:58:06.832Z,16.39
2018-05-23T03:00:34.357Z,16.42
2018-05-23T03:03:08.073Z,16.26
2018-05-23T03:05:34.860Z,16.31
2018-05-23T03:08:01.653Z,16.36
2018-05-23T03:10:28.480Z,16.24
2018-05-23T03:12:55.257Z,16.22
2018-05-23T03:15:22.374Z,16.14
2018-05-23T03:17:49.155Z,16.20
2018-05-23T03:20:16.693Z,16.24
2018-05-23T03:22:43.548Z,16.22
2018-05-23T03:25:10.324Z,16.32
2018-05-23T03:27:37.253Z,16.25
2018-05-23T03:30:04.914Z,16.25
2018-05-23T03:32:32.792Z,16.17
2018-05-23T03:35:00.301Z,16.23
2018-05-23T03:37:27.829Z,16.25
2018-05-23T03:39:54.724Z,16.31
2018-05-23T03:42:21.492Z,16.20
2018-05-23T03:44:49.061Z,16.31
2018-05-23T03:47:16.609Z,16.39
2018-05-23T03:49:44.124Z,16.31
2018-05-23T03:52:11.993Z,16.32
2018-05-23T03:54:38.774Z,16.42
2018-05-23T03:57:06.639Z,16.34
2018-05-23T03:59:51.984Z,16.39
2018-05-23T04:02:38.033Z,16.44
2018-05-23T04:05:24.412Z,16.35
2018-05-23T04:07:51.204Z,16.34
2018-05-23T04:10:17.980Z,16.44
2018-05-23T04:12:45.120Z,16.44
2018-05-23T04:15:11.891Z,16.38
2018-05-23T04:17:38.668Z,16.32
2018-05-23T04:20:05.856Z,16.37
2018-05-23T04:22:32.614Z,16.44
2018-05-23T04:24:59.474Z,16.27
2018-05-23T04:27:26.588Z,16.45
2018-05-23T04:29:53.406Z,16.70
2018-05-23T04:32:20.187Z,16.73
2018-05-23T04:34:47.013Z,16.88
2018-05-23T04:37:13.851Z,16.95
2018-05-23T04:39:40.633Z,16.97
2018-05-23T04:42:07.470Z,16.96
2018-05-23T04:44:34.249Z,16.98
2018-05-23T04:47:01.045Z,17.11
2018-05-23T04:49:28.028Z,17.08
2018-05-23T04:51:55.561Z,17.16
2018-05-23T04:54:22.341Z,17.22
2018-05-23T04:56:49.178Z,17.16
2018-05-23T04:59:15.976Z,17.67
2018-05-23T05:01:43.599Z,17.28
2018-05-23T05:04:10.396Z,17.81
2018-05-23T05:06:37.175Z,17.76
2018-05-23T05:09:05.025Z,17.87
2018-05-23T05:11:32.661Z,18.06
2018-05-23T05:13:59.538Z,18.26
2018-05-23T05:16:27.061Z,18.41
2018-05-23T05:18:53.885Z,18.43
2018-05-23T05:21:20.666Z,18.42
2018-05-23T05:23:48.412Z,18.20
2018-05-23T05:26:16.016Z,18.35
2018-05-23T05:28:43.583Z,18.55
2018-05-23T05:31:11.241Z,18.43
2018-05-23T05:33:38.799Z,19.04
2018-05-23T05:36:06.320Z,19.35
2018-05-23T05:38:33.229Z,19.37
2018-05-23T05:41:00.004Z,19.38
2018-05-23T05:43:29.835Z,19.62
2018-05-23T05:45:56.664Z,19.52
2018-05-23T05:48:23.504Z,19.98
2018-05-23T05:50:50.341Z,20.22
2018-05-23T05:53:23.336Z,20.15
2018-05-23T05:55:50.172Z,19.92
2018-05-23T05:58:16.969Z,19.97
2018-05-23T06:00:44.479Z,20.07
2018-05-23T06:03:12.156Z,19.90
2018-05-23T06:05:38.959Z,20.38
2018-05-23T06:08:05.741Z,20.52
2018-05-23T06:10:38.741Z,21.09
2018-05-23T06:13:11.524Z,20.86
2018-05-23T06:15:38.426Z,20.67
2018-05-23T06:18:05.604Z,20.79
2018-05-23T06:20:32.383Z,21.20
2018-05-23T06:23:05.221Z,21.47
2018-05-23T06:25:32.040Z,21.50
2018-05-23T06:27:59.222Z,21.59
2018-05-23T06:30:26.380Z,21.40
2018-05-23T06:32:53.172Z,21.56
2018-05-23T06:35:20.740Z,21.64
2018-05-23T06:37:47.551Z,21.80
2018-05-23T06:40:14.427Z,21.80
2018-05-23T06:42:41.206Z,22.14
2018-05-23T06:45:08.033Z,22.36
2018-05-23T06:47:34.800Z,22.44
2018-05-23T06:50:01.622Z,22.56
2018-05-23T06:52:29.236Z,22.63
2018-05-23T06:54:56.752Z,22.83
2018-05-23T06:57:23.524Z,23.09
2018-05-23T06:59:50.656Z,22.06
2018-05-23T07:02:17.435Z,23.07
2018-05-23T07:04:44.275Z,22.62
2018-05-23T07:07:11.272Z,23.64
2018-05-23T07:09:38.060Z,23.18
2018-05-23T07:12:04.953Z,23.15
2018-05-23T07:14:32.040Z,23.48
2018-05-23T07:16:58.920Z,23.59
2018-05-23T07:19:26.796Z,22.68
2018-05-23T07:21:53.607Z,24.10
2018-05-23T07:24:20.384Z,24.20
2018-05-23T07:26:47.172Z,25.36
2018-05-23T07:29:14.044Z,24.53
2018-05-23T07:31:40.847Z,24.11
2018-05-23T07:34:07.926Z,24.68
2018-05-23T07:36:34.752Z,24.78
2018-05-23T07:39:01.540Z,24.79
2018-05-23T07:41:28.383Z,25.29
2018-05-23T07:43:55.944Z,24.95
2018-05-23T07:46:23.521Z,25.43
2018-05-23T07:48:50.299Z,25.49
2018-05-23T07:51:17.126Z,25.55
2018-05-23T07:53:44.696Z,25.53
2018-05-23T07:56:11.526Z,25.43
2018-05-23T07:58:38.346Z,25.10
2018-05-23T08:01:05.203Z,25.34
2018-05-23T08:03:32.972Z,25.50
2018-05-23T08:06:00.565Z,25.03
2018-05-23T08:08:27.389Z,25.53
2018-05-23T08:10:54.183Z,25.53
2018-05-23T08:13:26.055Z,24.95
2018-05-23T08:15:53.570Z,25.33
2018-05-23T08:18:21.396Z,25.82
2018-05-23T08:20:48.280Z,25.47
2018-05-23T08:23:21.076Z,25.21
2018-05-23T08:25:47.913Z,25.05
2018-05-23T08:28:14.732Z,25.68
2018-05-23T08:30:42.420Z,25.79
2018-05-23T08:33:09.196Z,26.45
2018-05-23T08:35:36.718Z,26.55
2018-05-23T08:38:03.572Z,26.09
2018-05-23T08:40:30.352Z,26.36
2018-05-23T08:42:57.387Z,26.02
2018-05-23T08:45:24.893Z,25.69
2018-05-23T08:47:51.676Z,26.77
2018-05-23T08:50:18.534Z,25.90
2018-05-23T08:52:46.050Z,26.27
2018-05-23T08:55:13.657Z,26.03
2018-05-23T08:57:41.218Z,26.35
2018-05-23T09:00:08.041Z,26.29
2018-05-23T09:02:34.820Z,25.82
2018-05-23T09:05:02.605Z,26.29
2018-05-23T09:07:29.457Z,25.87
2018-05-23T09:09:56.248Z,26.39
2018-05-23T09:12:23.090Z,26.12
2018-05-23T09:14:50.625Z,25.96
2018-05-23T09:17:17.408Z,25.97
2018-05-23T09:19:44.348Z,26.22
2018-05-23T09:22:11.868Z,26.81
2018-05-23T09:24:38.682Z,26.07
2018-05-23T09:27:05.519Z,26.77
2018-05-23T09:29:32.313Z,26.50
2018-05-23T09:31:59.154Z,26.33
2018-05-23T09:34:26.185Z,26.34
2018-05-23T09:36:52.965Z,26.23
2018-05-23T09:39:19.740Z,26.22
2018-05-23T09:41:46.548Z,26.22
2018-05-23T09:44:14.123Z,26.24
2018-05-23T09:46:41.681Z,26.23
2018-05-23T09:49:09.248Z,26.00
2018-05-23T09:51:36.765Z,26.44
2018-05-23T09:54:03.611Z,26.57
2018-05-23T09:56:30.456Z,26.17
2018-05-23T09:58:57.285Z,26.62
2018-05-23T10:01:24.090Z,26.77
2018-05-23T10:03:57.031Z,26.18
2018-05-23T10:06:24.633Z,26.51
2018-05-23T10:08:51.508Z,26.54
2018-05-23T10:11:18.348Z,26.61
2018-05-23T10:13:45.156Z,26.40
2018-05-23T10:16:11.976Z,25.95
2018-05-23T10:18:38.750Z,25.68
2018-05-23T10:21:05.577Z,26.01
2018-05-23T10:23:32.404Z,26.44
2018-05-23T10:25:59.192Z,26.27
2018-05-23T10:28:25.992Z,25.97
2018-05-23T10:30:52.953Z,26.23
2018-05-23T10:33:25.927Z,26.37
2018-05-23T10:35:52.820Z,26.25
2018-05-23T10:38:19.649Z,26.19
2018-05-23T10:40:47.164Z,26.03
2018-05-23T10:43:19.928Z,25.98
2018-05-23T10:45:47.508Z,26.30
2018-05-23T10:48:14.356Z,25.76
2018-05-23T10:50:41.135Z,26.39
2018-05-23T10:53:13.885Z,26.35
2018-05-23T10:55:40.951Z,26.66
2018-05-23T10:58:07.780Z,26.57
2018-05-23T11:00:34.564Z,26.67
2018-05-23T11:03:07.529Z,26.60
2018-05-23T11:05:34.366Z,26.81
2018-05-23T11:08:01.128Z,26.21
2018-05-23T11:10:28.340Z,26.31
2018-05-23T11:12:55.116Z,26.52
2018-05-23T11:15:22.671Z,26.62
2018-05-23T11:17:49.468Z,26.36
2018-05-23T11:20:16.237Z,25.97
2018-05-23T11:22:43.120Z,26.07
2018-05-23T11:25:10.661Z,26.18
2018-05-23T11:27:37.441Z,26.61
2018-05-23T11:30:04.584Z,26.39
2018-05-23T11:32:31.375Z,26.11
2018-05-23T11:34:58.260Z,26.33
2018-05-23T11:37:25.086Z,26.11
2018-05-23T11:39:52.603Z,26.07
2018-05-23T11:42:19.429Z,26.19
2018-05-23T11:44:46.232Z,26.09
2018-05-23T11:47:13.087Z,26.44
2018-05-23T11:49:40.643Z,26.54
2018-05-23T11:52:08.179Z,27.00
2018-05-23T11:54:41.061Z,26.65
2018-05-23T11:57:07.823Z,26.65
2018-05-23T11:59:34.693Z,26.44
2018-05-23T12:02:01.487Z,26.73
2018-05-23T12:04:28.264Z,26.70
2018-05-23T12:06:55.828Z,26.54
2018-05-23T12:09:28.492Z,26.41
2018-05-23T12:11:55.524Z,26.63
2018-05-23T12:14:22.300Z,26.54
2018-05-23T12:16:49.804Z,26.41
2018-05-23T12:19:16.637Z,26.32
2018-05-23T12:21:43.418Z,26.56
2018-05-23T12:24:10.256Z,26.97
2018-05-23T12:26:37.085Z,26.44
2018-05-23T12:29:04.001Z,26.36
2018-05-23T12:31:30.792Z,26.54
2018-05-23T12:33:57.631Z,26.55
2018-05-23T12:36:24.464Z,26.63
2018-05-23T12:38:51.292Z,26.72
2018-05-23T12:41:18.068Z,26.91
2018-05-23T12:43:44.848Z,26.65
2018-05-23T12:46:12.790Z,26.63
2018-05-23T12:48:39.627Z,26.31
2018-05-23T12:51:06.427Z,26.52
2018-05-23T12:53:33.902Z,26.80
2018-05-23T12:56:05.515Z,26.69
2018-05-23T12:58:33.391Z,26.75
2018-05-23T13:01:00.233Z,26.72
2018-05-23T13:03:33.180Z,26.45
2018-05-23T13:05:59.971Z,26.91
2018-05-23T13:08:26.800Z,26.88
2018-05-23T13:10:54.316Z,26.30
2018-05-23T13:13:27.073Z,26.44
2018-05-23T13:15:53.936Z,26.76
2018-05-23T13:18:20.709Z,26.47
2018-05-23T13:20:47.535Z,26.78
2018-05-23T13:23:20.301Z,26.75
2018-05-23T13:25:48.090Z,26.92
2018-05-23T13:28:14.876Z,26.98
2018-05-23T13:30:41.713Z,26.54
2018-05-23T13:33:14.647Z,26.64
2018-05-23T13:35:41.449Z,26.66
2018-05-23T13:38:08.361Z,26.59
2018-05-23T13:40:35.583Z,26.81
2018-05-23T13:43:02.378Z,26.67
2018-05-23T13:45:29.935Z,26.71
2018-05-23T13:47:57.504Z,26.78
2018-05-23T13:50:24.332Z,26.57
2018-05-23T13:52:51.858Z,27.14
2018-05-23T13:55:18.697Z,26.68
2018-05-23T13:57:45.492Z,26.75
2018-05-23T14:00:13.016Z,26.87
2018-05-23T14:02:39.888Z,27.03
2018-05-23T14:05:07.817Z,27.13
2018-05-23T14:07:34.639Z,26.70
2018-05-23T14:10:01.424Z,26.61
2018-05-23T14:12:28.253Z,26.73
2018-05-23T14:14:55.153Z,26.45
2018-05-23T14:17:21.975Z,26.31
2018-05-23T14:19:49.520Z,26.40
2018-05-23T14:22:16.335Z,26.21
2018-05-23T14:24:43.131Z,26.47
2018-05-23T14:27:09.976Z,26.34
2018-05-23T14:29:36.807Z,26.37
2018-05-23T14:32:04.384Z,26.59
2018-05-23T14:34:31.169Z,26.68
2018-05-23T14:36:57.999Z,27.01
2018-05-23T14:39:25.656Z,26.75
2018-05-23T14:41:52.473Z,27.04
2018-05-23T14:44:20.015Z,27.03
2018-05-23T14:46:47.033Z,26.63
2018-05-23T14:49:13.804Z,26.71
2018-05-23T14:51:40.680Z,26.69
2018-05-23T14:54:07.876Z,26.57
2018-05-23T14:56:34.684Z,26.69
2018-05-23T14:59:02.236Z,26.67
2018-05-23T15:01:29.065Z,26.92
2018-05-23T15:03:55.953Z,26.95
2018-05-23T15:06:22.739Z,26.74
2018-05-23T15:08:50.251Z,27.09
2018-05-23T15:11:17.125Z,26.72
2018-05-23T15:13:43.933Z,26.77
2018-05-23T15:16:11.106Z,26.75
2018-05-23T15:18:37.889Z,27.08
2018-05-23T15:21:05.426Z,26.93
2018-05-23T15:23:32.259Z,27.34
2018-05-23T15:25:59.069Z,26.96
2018-05-23T15:28:25.900Z,26.96
2018-05-23T15:30:52.759Z,27.22
2018-05-23T15:33:25.769Z,27.45
2018-05-23T15:35:52.556Z,26.91
2018-05-23T15:38:20.127Z,26.30
2018-05-23T15:40:47.010Z,26.22
2018-05-23T15:43:19.976Z,26.16
2018-05-23T15:45:46.759Z,26.26
2018-05-23T15:48:13.566Z,26.41
2018-05-23T15:50:40.540Z,26.10
2018-05-23T15:53:13.444Z,26.10
2018-05-23T15:55:40.513Z,26.06
2018-05-23T15:58:08.367Z,26.05
2018-05-23T16:00:35.170Z,25.97
2018-05-23T16:03:02.221Z,25.89
2018-05-23T16:05:29.856Z,25.94
2018-05-23T16:07:56.651Z,25.90
2018-05-23T16:10:23.510Z,25.82
2018-05-23T16:12:50.302Z,25.69
2018-05-23T16:15:17.381Z,25.59
2018-05-23T16:17:44.255Z,25.52
2018-05-23T16:20:11.816Z,25.71
2018-05-23T16:22:39.343Z,25.90
2018-05-23T16:25:06.168Z,25.63
2018-05-23T16:27:33.010Z,25.56
2018-05-23T16:29:59.854Z,25.67
2018-05-23T16:32:26.663Z,25.67
2018-05-23T16:34:54.244Z,25.70
2018-05-23T16:37:21.087Z,25.80
2018-05-23T16:39:47.869Z,25.39
2018-05-23T16:42:14.731Z,25.37
2018-05-23T16:44:41.560Z,25.43
2018-05-23T16:47:08.345Z,25.54
2018-05-23T16:49:35.133Z,25.35
2018-05-23T16:52:01.974Z,25.45
2018-05-23T16:54:28.843Z,25.17
2018-05-23T16:56:55.674Z,25.23
2018-05-23T16:59:22.463Z,25.09
2018-05-23T17:01:50.032Z,24.90
2018-05-23T17:04:16.820Z,24.88
2018-05-23T17:06:43.868Z,24.78
2018-05-23T17:09:10.692Z,24.76
2018-05-23T17:11:37.499Z,24.76
2018-05-23T17:14:05.217Z,24.75
2018-05-23T17:16:32.040Z,24.63
2018-05-23T17:18:59.623Z,24.54
2018-05-23T17:21:26.456Z,24.56
2018-05-23T17:23:53.275Z,24.48
2018-05-23T17:26:20.044Z,24.40
2018-05-23T17:28:47.134Z,24.30
2018-05-23T17:31:13.972Z,24.29
2018-05-23T17:33:40.816Z,24.33
2018-05-23T17:36:08.408Z,24.41
2018-05-23T17:38:35.203Z,24.17
2018-05-23T17:41:01.992Z,24.11
2018-05-23T17:43:28.914Z,24.07
2018-05-23T17:45:55.769Z,24.19
2018-05-23T17:48:22.698Z,24.06
2018-05-23T17:50:50.232Z,24.10
2018-05-23T17:53:22.915Z,24.00
2018-05-23T17:55:49.824Z,23.89
2018-05-23T17:58:16.865Z,23.96
2018-05-23T18:00:43.791Z,23.85
2018-05-23T18:03:16.458Z,23.84
2018-05-23T18:05:43.284Z,23.80
2018-05-23T18:08:10.100Z,23.81
2018-05-23T18:10:36.875Z,23.77
2018-05-23T18:13:03.705Z,23.64
2018-05-23T18:15:30.676Z,23.65
2018-05-23T18:17:57.889Z,23.62
2018-05-23T18:20:24.893Z,23.54
2018-05-23T18:22:51.623Z,23.57
2018-05-23T18:25:18.435Z,23.43
2018-05-23T18:27:45.490Z,23.36
2018-05-23T18:30:12.307Z,23.33
2018-05-23T18:32:39.895Z,23.32
2018-05-23T18:35:06.733Z,23.25
2018-05-23T18:37:33.598Z,23.11
2018-05-23T18:40:00.431Z,23.10
2018-05-23T18:42:27.466Z,23.02
2018-05-23T18:44:55.099Z,23.00
2018-05-23T18:47:21.873Z,22.91
2018-05-23T18:49:48.643Z,22.82
2018-05-23T18:52:15.468Z,22.80
2018-05-23T18:54:42.264Z,22.64
2018-05-23T18:57:09.171Z,22.70
2018-05-23T18:59:36.199Z,22.63
2018-05-23T19:02:03.001Z,22.48
2018-05-23T19:04:30.047Z,22.43
2018-05-23T19:06:57.162Z,22.29
2018-05-23T19:09:24.003Z,22.21
2018-05-23T19:11:51.096Z,22.18
2018-05-23T19:14:18.101Z,22.14
2018-05-23T19:16:44.896Z,22.05
2018-05-23T19:19:11.680Z,22.04
2018-05-23T19:21:38.725Z,21.91
2018-05-23T19:24:05.536Z,21.81
2018-05-23T19:26:32.472Z,21.85
2018-05-23T19:29:00.223Z,21.78
2018-05-23T19:31:27.001Z,21.70
2018-05-23T19:33:56.891Z,21.63
2018-05-23T19:36:23.979Z,21.52
2018-05-23T19:38:50.772Z,21.57
2018-05-23T19:41:18.396Z,21.50
2018-05-23T19:43:51.127Z,21.45
2018-05-23T19:46:18.018Z,21.39
2018-05-23T19:48:44.804Z,21.28
2018-05-23T19:51:12.532Z,21.26
2018-05-23T19:53:45.266Z,21.19
2018-05-23T19:56:12.140Z,21.16
2018-05-23T19:58:40.021Z,21.07
2018-05-23T20:01:06.804Z,21.02
2018-05-23T20:03:39.735Z,20.93
2018-05-23T20:06:06.562Z,20.86
2018-05-23T20:08:33.347Z,20.82
2018-05-23T20:11:00.204Z,20.72
2018-05-23T20:13:33.014Z,20.74
2018-05-23T20:15:59.790Z,20.61
2018-05-23T20:18:27.000Z,20.64
2018-05-23T20:20:53.788Z,20.54
2018-05-23T20:23:26.576Z,20.55
2018-05-23T20:25:53.419Z,20.39
2018-05-23T20:28:21.713Z,20.41
2018-05-23T20:30:48.552Z,20.30
2018-05-23T20:33:21.556Z,20.30
2018-05-23T20:35:48.484Z,20.22
2018-05-23T20:38:15.421Z,20.23
2018-05-23T20:40:48.241Z,20.14
2018-05-23T20:43:21.167Z,20.08
2018-05-23T20:45:48.047Z,20.02
2018-05-23T20:48:14.836Z,19.82
2018-05-23T20:50:41.707Z,19.92
2018-05-23T20:53:08.541Z,19.93
2018-05-23T20:55:35.340Z,19.89
2018-05-23T20:58:02.928Z,19.78
2018-05-23T21:00:30.143Z,19.80
2018-05-23T21:02:56.915Z,19.77
2018-05-23T21:05:24.656Z,19.70
2018-05-23T21:07:51.470Z,19.63
2018-05-23T21:10:19.048Z,19.60
2018-05-23T21:12:45.983Z,19.57
2018-05-23T21:15:12.797Z,19.50
2018-05-23T21:17:39.584Z,19.38
2018-05-23T21:20:06.529Z,19.32
2018-05-23T21:22:33.348Z,19.31
2018-05-23T21:25:00.140Z,19.26
2018-05-23T21:27:27.713Z,19.27
2018-05-23T21:29:55.227Z,19.22
2018-05-23T21:32:22.015Z,19.09
2018-05-23T21:34:48.892Z,19.11
2018-05-23T21:37:15.744Z,19.03
2018-05-23T21:39:42.523Z,19.19
2018-05-23T21:42:09.357Z,19.06
2018-05-23T21:44:36.130Z,18.91
2018-05-23T21:47:03.085Z,18.84
2018-05-23T21:49:29.911Z,18.74
2018-05-23T21:51:57.430Z,18.70
2018-05-23T21:54:24.996Z,18.67
2018-05-23T21:56:51.828Z,18.65
2018-05-23T21:59:19.407Z,18.49
2018-05-23T22:01:46.204Z,18.45
2018-05-23T22:04:19.139Z,18.54
2018-05-23T22:06:45.924Z,18.44
2018-05-23T22:09:12.709Z,18.29
2018-05-23T22:11:40.317Z,18.35
2018-05-23T22:14:07.845Z,18.27
2018-05-23T22:16:34.615Z,18.18
2018-05-23T22:19:02.199Z,18.16
2018-05-23T22:21:28.984Z,18.12
2018-05-23T22:24:01.928Z,18.06
2018-05-23T22:26:28.864Z,18.07
2018-05-23T22:28:56.421Z,18.01
2018-05-23T22:31:24.303Z,17.93
2018-05-23T22:33:51.140Z,17.95
2018-05-23T22:36:18.084Z,17.88
2018-05-23T22:38:45.616Z,17.92
2018-05-23T22:41:12.534Z,17.80
2018-05-23T22:43:39.313Z,17.84
2018-05-23T22:46:06.105Z,17.72
2018-05-23T22:48:33.741Z,17.51
2018-05-23T22:51:00.520Z,17.58
2018-05-23T22:53:29.332Z,17.48
2018-05-23T22:55:56.172Z,17.42
2018-05-23T22:58:22.980Z,17.44
2018-05-23T23:00:49.803Z,17.36
2018-05-23T23:03:22.645Z,17.38
2018-05-23T23:05:49.427Z,17.40
2018-05-23T23:08:16.948Z,17.32
2018-05-23T23:10:43.858Z,17.19
2018-05-23T23:13:10.703Z,17.24
2018-05-23T23:15:37.480Z,17.27
2018-05-23T23:18:04.352Z,17.12
2018-05-23T23:20:31.895Z,17.13
2018-05-23T23:22:58.686Z,17.10
2018-05-23T23:25:25.612Z,17.17
2018-05-23T23:27:53.148Z,17.09
2018-05-23T23:30:20.680Z,17.02
2018-05-23T23:32:47.512Z,16.93
2018-05-23T23:35:14.293Z,16.82
2018-05-23T23:37:41.152Z,16.78
2018-05-23T23:40:08.724Z,16.79
2018-05-23T23:42:36.241Z,16.67
2018-05-23T23:45:03.068Z,16.59
2018-05-23T23:47:29.924Z,16.64
2018-05-23T23:49:56.797Z,16.66
2018-05-23T23:52:23.576Z,16.69
2018-05-23T23:54:50.409Z,16.59
2018-05-23T23:57:17.200Z,16.38
2018-05-23T23:59:43.990Z,16.52
